Terminal Aerodrome Forecast
Issued by NWS Sterling, VA

Current Version | Previous Version | Graphics & Text | Print | Product List | Glossary On
Versions: 1 2 3 4 5 6 7 8 9 10 11 12 13 14 15 16 17 18 19 20 21 22 23 24 25 26 27 28 29 30 31 32 33 34
000
FTUS41 KLWX 242205 AAC
TAFMRB
TAF AMD
KMRB 242205Z 2422/2518 04005KT 4SM -SHRA BR OVC011
     FM250100 VRB03KT 3SM BR OVC008
     FM250400 VRB03KT 3SM BR OVC008
     FM250500 VRB03KT 2SM -SHRA BR OVC008
     FM250600 VRB03KT 1SM -SHRA BR OVC008
     FM250800 10004KT 1SM -SHRA BR OVC003
     FM251700 22008KT P6SM OVC015=

USA.gov is the U.S. government's official web portal to all federal, state and local government web resources and services.